Time;durP1;ratioP1;P1;durP2;ratioP2;P2;SDS_P1;SDS_P2;PMS_P1;PMS_P2;Temp;Humidity;BMP_temperature;BMP_pressure;BME280_temperature;BME280_humidity;BME280_pressure;Samples;Min_cycle;Max_cycle;Signal;HPM_P1;HPM_P2
2022/09/27 00:01:39;;;;;;;0.10;0.10;;;;;;;;;;5062379;28;20473;-76
2022/09/27 00:04:05;;;;;;;0.10;0.10;;;;;;;;;;5052134;28;20538;-76
2022/09/27 00:06:32;;;;;;;0.10;0.10;;;;;;;;;;5059869;28;20425;-76
2022/09/27 00:08:59;;;;;;;0.00;0.00;;;;;;;;;;5057619;28;20427;-76
2022/09/27 00:11:30;;;;;;;0.10;0.10;;;;;;;;;;5054497;28;20429;-77
2022/09/27 00:13:56;;;;;;;0.10;0.10;;;;;;;;;;5048115;28;20451;-77
2022/09/27 00:16:23;;;;;;;0.10;0.10;;;;;;;;;;5048702;28;20412;-77
2022/09/27 00:18:49;;;;;;;0.10;0.10;;;;;;;;;;5061129;28;20420;-77
2022/09/27 00:21:15;;;;;;;0.00;0.00;;;;;;;;;;5052995;28;20448;-77
2022/09/27 00:23:42;;;;;;;0.00;0.00;;;;;;;;;;5039899;28;20423;-77
2022/09/27 00:26:10;;;;;;;0.00;0.00;;;;;;;;;;5052329;28;20525;-77
2022/09/27 00:28:36;;;;;;;0.00;0.00;;;;;;;;;;5060917;28;20429;-77
2022/09/27 00:31:02;;;;;;;0.10;0.10;;;;;;;;;;5036583;28;20424;-77
2022/09/27 00:33:28;;;;;;;0.00;0.00;;;;;;;;;;5039334;28;20462;-77
2022/09/27 00:35:55;;;;;;;0.03;0.03;;;;;;;;;;5029016;28;20441;-77
2022/09/27 00:38:21;;;;;;;0.00;0.00;;;;;;;;;;5053065;28;20422;-77
2022/09/27 00:40:47;;;;;;;0.00;0.00;;;;;;;;;;5035142;28;20498;-77
2022/09/27 00:43:21;;;;;;;0.00;0.00;;;;;;;;;;5057130;28;20416;-77
2022/09/27 00:45:56;;;;;;;0.00;0.00;;;;;;;;;;5052247;28;20437;-77
2022/09/27 00:48:26;;;;;;;0.10;0.10;;;;;;;;;;5033199;28;20485;-77
2022/09/27 00:50:54;;;;;;;0.00;0.00;;;;;;;;;;5024284;28;20445;-77
2022/09/27 00:53:35;;;;;;;0.00;0.00;;;;;;;;;;5037683;28;20419;-77
2022/09/27 00:56:05;;;;;;;0.00;0.00;;;;;;;;;;5048348;28;20452;-77
2022/09/27 00:58:34;;;;;;;0.00;0.00;;;;;;;;;;5051914;28;20431;-77
2022/09/27 01:01:02;;;;;;;0.00;0.00;;;;;;;;;;5052915;28;20927;-77
2022/09/27 01:03:31;;;;;;;0.00;0.00;;;;;;;;;;5050592;28;20500;-77
2022/09/27 01:05:59;;;;;;;0.00;0.00;;;;;;;;;;5052847;28;20416;-76
2022/09/27 01:08:25;;;;;;;0.03;0.03;;;;;;;;;;5056279;28;20425;-77
2022/09/27 01:10:54;;;;;;;0.00;0.00;;;;;;;;;;5039010;28;20419;-77
2022/09/27 01:13:25;;;;;;;0.10;0.10;;;;;;;;;;5031093;28;20947;-77
2022/09/27 01:16:02;;;;;;;0.00;0.00;;;;;;;;;;5052295;28;20411;-77
2022/09/27 01:18:31;;;;;;;0.10;0.10;;;;;;;;;;5051143;28;20429;-77
2022/09/27 01:21:09;;;;;;;0.10;0.10;;;;;;;;;;5057761;28;20412;-77
2022/09/27 01:23:36;;;;;;;0.10;0.10;;;;;;;;;;5056313;28;20431;-77
2022/09/27 01:26:20;;;;;;;0.00;0.00;;;;;;;;;;5057469;28;20422;-76
2022/09/27 01:28:58;;;;;;;0.10;0.10;;;;;;;;;;5050044;28;20429;-77
2022/09/27 01:31:34;;;;;;;0.10;0.10;;;;;;;;;;5024691;28;20424;-76
2022/09/27 01:34:07;;;;;;;0.10;0.10;;;;;;;;;;5060959;28;20421;-76
2022/09/27 01:36:33;;;;;;;0.10;0.10;;;;;;;;;;5056417;28;20585;-77
2022/09/27 01:38:59;;;;;;;0.00;0.00;;;;;;;;;;5032214;28;20502;-77
2022/09/27 01:41:31;;;;;;;0.03;0.03;;;;;;;;;;5057662;28;20426;-77
2022/09/27 01:44:00;;;;;;;0.10;0.10;;;;;;;;;;5051671;28;20451;-77
2022/09/27 01:46:31;;;;;;;0.10;0.10;;;;;;;;;;5056764;28;21932;-76
2022/09/27 01:48:58;;;;;;;0.00;0.00;;;;;;;;;;5048540;28;20454;-76
2022/09/27 01:51:30;;;;;;;0.10;0.10;;;;;;;;;;5036277;28;20710;-77
2022/09/27 01:54:03;;;;;;;0.03;0.03;;;;;;;;;;5050857;28;20594;-76
2022/09/27 01:56:40;;;;;;;0.10;0.10;;;;;;;;;;5035595;28;20750;-76
2022/09/27 01:59:08;;;;;;;0.00;0.00;;;;;;;;;;5050729;28;20909;-75
2022/09/27 02:01:35;;;;;;;0.00;0.00;;;;;;;;;;5052991;28;20437;-76
2022/09/27 02:04:02;;;;;;;0.08;0.08;;;;;;;;;;5057485;28;20742;-76
2022/09/27 02:06:37;;;;;;;0.10;0.10;;;;;;;;;;5054619;28;20419;-76
2022/09/27 02:09:07;;;;;;;0.10;0.10;;;;;;;;;;5039682;28;20457;-76
2022/09/27 02:11:35;;;;;;;0.10;0.10;;;;;;;;;;5023657;28;20423;-76
2022/09/27 02:14:07;;;;;;;0.00;0.00;;;;;;;;;;5053427;28;20425;-76
2022/09/27 02:16:33;;;;;;;0.00;0.00;;;;;;;;;;5055164;28;20472;-76
2022/09/27 02:19:08;;;;;;;0.00;0.00;;;;;;;;;;5052427;28;20477;-76
2022/09/27 02:21:57;;;;;;;0.10;0.10;;;;;;;;;;5044226;28;20435;-76
2022/09/27 02:24:32;;;;;;;0.07;0.07;;;;;;;;;;5002185;28;20442;-77
2022/09/27 02:27:04;;;;;;;0.00;0.00;;;;;;;;;;5061393;28;20480;-76
2022/09/27 02:29:36;;;;;;;0.10;0.10;;;;;;;;;;5052886;28;20470;-77
2022/09/27 02:32:02;;;;;;;0.10;0.10;;;;;;;;;;5060492;28;20427;-76
2022/09/27 02:34:30;;;;;;;0.00;0.00;;;;;;;;;;5038576;28;20429;-76
2022/09/27 02:36:56;;;;;;;0.00;0.00;;;;;;;;;;5056329;28;20423;-77
2022/09/27 02:39:23;;;;;;;0.10;0.10;;;;;;;;;;5033614;28;20427;-77
2022/09/27 02:41:49;;;;;;;0.00;0.00;;;;;;;;;;5057572;28;20464;-76
2022/09/27 02:44:16;;;;;;;0.05;0.05;;;;;;;;;;5040519;28;20427;-77
2022/09/27 02:47:01;;;;;;;0.00;0.00;;;;;;;;;;5055006;28;20483;-76
2022/09/27 02:49:46;;;;;;;0.00;0.00;;;;;;;;;;5049347;28;20434;-77
2022/09/27 02:52:12;;;;;;;0.00;0.00;;;;;;;;;;5063326;28;20453;-76
2022/09/27 02:54:38;;;;;;;0.10;0.10;;;;;;;;;;5064433;28;20475;-77
2022/09/27 02:57:07;;;;;;;0.10;0.10;;;;;;;;;;5058721;28;20431;-76
2022/09/27 02:59:33;;;;;;;0.00;0.00;;;;;;;;;;5050642;28;20434;-76
2022/09/27 03:02:13;;;;;;;0.10;0.10;;;;;;;;;;5057323;28;20428;-77
2022/09/27 03:04:42;;;;;;;0.10;0.10;;;;;;;;;;5055901;28;20425;-76
2022/09/27 03:07:09;;;;;;;0.00;0.00;;;;;;;;;;5061043;28;20431;-76
2022/09/27 03:09:47;;;;;;;0.03;0.03;;;;;;;;;;5029930;28;20437;-76
2022/09/27 03:12:13;;;;;;;0.10;0.10;;;;;;;;;;5059240;28;20423;-76
2022/09/27 03:14:39;;;;;;;0.10;0.10;;;;;;;;;;5054091;28;20491;-76
2022/09/27 03:17:06;;;;;;;0.00;0.00;;;;;;;;;;5055890;28;20886;-76
2022/09/27 03:19:32;;;;;;;0.00;0.00;;;;;;;;;;5053840;28;21574;-76
2022/09/27 03:21:58;;;;;;;0.00;0.00;;;;;;;;;;5052840;28;20846;-76
2022/09/27 03:24:24;;;;;;;0.00;0.00;;;;;;;;;;5034728;28;20937;-76
2022/09/27 03:26:50;;;;;;;0.10;0.10;;;;;;;;;;5060866;28;20431;-76
2022/09/27 03:29:16;;;;;;;0.00;0.00;;;;;;;;;;5052359;28;20417;-77
2022/09/27 03:31:42;;;;;;;0.05;0.05;;;;;;;;;;5036026;28;20446;-77
2022/09/27 03:34:08;;;;;;;0.00;0.00;;;;;;;;;;5057263;28;20446;-77
2022/09/27 03:36:34;;;;;;;0.10;0.10;;;;;;;;;;5055557;28;20488;-77
2022/09/27 03:39:00;;;;;;;0.00;0.00;;;;;;;;;;5058578;28;20430;-77
2022/09/27 03:41:26;;;;;;;0.00;0.00;;;;;;;;;;5030051;28;21013;-77
2022/09/27 03:43:55;;;;;;;0.10;0.10;;;;;;;;;;5034678;28;20439;-77
2022/09/27 03:46:21;;;;;;;0.00;0.00;;;;;;;;;;5053513;28;20428;-77
2022/09/27 03:48:47;;;;;;;0.10;0.10;;;;;;;;;;5040159;28;20427;-77
2022/09/27 03:51:13;;;;;;;0.10;0.10;;;;;;;;;;5052738;28;20453;-78
2022/09/27 03:53:39;;;;;;;0.10;0.10;;;;;;;;;;5043413;28;20432;-78
2022/09/27 03:56:05;;;;;;;0.10;0.10;;;;;;;;;;5060115;28;20511;-77
2022/09/27 03:58:31;;;;;;;0.10;0.10;;;;;;;;;;5040756;28;20425;-77
2022/09/27 04:00:57;;;;;;;0.00;0.00;;;;;;;;;;5056112;28;20437;-78
2022/09/27 04:03:25;;;;;;;0.00;0.00;;;;;;;;;;5021274;28;20431;-78
2022/09/27 04:05:52;;;;;;;0.00;0.00;;;;;;;;;;5058679;28;20437;-78
2022/09/27 04:08:18;;;;;;;0.00;0.00;;;;;;;;;;5055149;28;20423;-78
2022/09/27 04:10:44;;;;;;;0.00;0.00;;;;;;;;;;5029514;28;20454;-78
2022/09/27 04:13:10;;;;;;;0.00;0.00;;;;;;;;;;5054191;28;20765;-77
2022/09/27 04:15:38;;;;;;;0.20;0.20;;;;;;;;;;5053316;28;20500;-76
2022/09/27 04:18:04;;;;;;;0.10;0.10;;;;;;;;;;5052816;28;20460;-78
2022/09/27 04:20:30;;;;;;;0.10;0.10;;;;;;;;;;5054755;28;20449;-77
2022/09/27 04:22:56;;;;;;;0.00;0.00;;;;;;;;;;5054468;28;20812;-77
2022/09/27 04:25:22;;;;;;;0.00;0.00;;;;;;;;;;5034430;28;20731;-77
2022/09/27 04:27:54;;;;;;;0.10;0.10;;;;;;;;;;5053537;28;20805;-77
2022/09/27 04:30:20;;;;;;;0.00;0.00;;;;;;;;;;5050565;28;20503;-83
2022/09/27 04:32:46;;;;;;;0.00;0.00;;;;;;;;;;5040646;28;20419;-78
2022/09/27 04:37:58;;;;;;;0.00;0.00;;;;;;;;;;5038609;28;20770;-79
2022/09/27 04:40:24;;;;;;;0.10;0.10;;;;;;;;;;5050129;28;20506;-79
2022/09/27 04:42:51;;;;;;;0.07;0.07;;;;;;;;;;5059007;28;20439;-79
2022/09/27 04:45:18;;;;;;;0.10;0.10;;;;;;;;;;5033645;28;20425;-79
2022/09/27 04:47:46;;;;;;;0.30;0.30;;;;;;;;;;5055636;28;20464;-79
2022/09/27 04:50:12;;;;;;;0.00;0.00;;;;;;;;;;5037919;28;20441;-79
2022/09/27 04:52:39;;;;;;;0.10;0.10;;;;;;;;;;5055051;28;20437;-78
2022/09/27 04:55:05;;;;;;;0.00;0.00;;;;;;;;;;5036151;28;20423;-77
2022/09/27 04:57:32;;;;;;;0.10;0.10;;;;;;;;;;5052417;28;20449;-77
2022/09/27 04:59:59;;;;;;;0.00;0.00;;;;;;;;;;5057164;28;20433;-76
2022/09/27 05:02:26;;;;;;;0.10;0.10;;;;;;;;;;5022324;28;20419;-76
2022/09/27 05:04:52;;;;;;;0.10;0.10;;;;;;;;;;5060942;28;20754;-75
2022/09/27 05:07:18;;;;;;;0.10;0.10;;;;;;;;;;5059344;28;20423;-74
2022/09/27 05:09:44;;;;;;;0.60;0.60;;;;;;;;;;5055559;28;20429;-77
2022/09/27 05:12:12;;;;;;;0.10;0.10;;;;;;;;;;5028089;28;20495;-76
2022/09/27 05:14:38;;;;;;;0.10;0.10;;;;;;;;;;5047025;28;20430;-76
2022/09/27 05:17:06;;;;;;;0.10;0.10;;;;;;;;;;5014436;28;20481;-76
2022/09/27 05:19:32;;;;;;;0.08;0.08;;;;;;;;;;5047634;28;20425;-76
2022/09/27 05:21:58;;;;;;;0.10;0.10;;;;;;;;;;5039857;28;20437;-76
2022/09/27 05:24:26;;;;;;;0.03;0.03;;;;;;;;;;5041990;28;20421;-76
2022/09/27 05:26:53;;;;;;;0.00;0.00;;;;;;;;;;5064598;28;20429;-77
2022/09/27 05:29:19;;;;;;;0.00;0.00;;;;;;;;;;5048008;28;20432;-76
2022/09/27 05:31:46;;;;;;;0.00;0.00;;;;;;;;;;5043407;28;20965;-77
2022/09/27 05:34:12;;;;;;;0.00;0.00;;;;;;;;;;5044661;28;20500;-76
2022/09/27 05:36:38;;;;;;;0.10;0.10;;;;;;;;;;5019839;28;20508;-76
2022/09/27 05:39:05;;;;;;;0.00;0.00;;;;;;;;;;5038517;28;20419;-76
2022/09/27 05:41:32;;;;;;;0.10;0.10;;;;;;;;;;5030561;28;20424;-77
2022/09/27 05:43:58;;;;;;;0.10;0.10;;;;;;;;;;5045334;28;20413;-76
2022/09/27 05:46:24;;;;;;;0.10;0.10;;;;;;;;;;5037860;28;20439;-77
2022/09/27 05:48:50;;;;;;;0.10;0.10;;;;;;;;;;5038021;28;20953;-77
2022/09/27 05:51:18;;;;;;;0.00;0.00;;;;;;;;;;5022545;28;20449;-76
2022/09/27 05:53:44;;;;;;;0.10;0.10;;;;;;;;;;5042971;28;20840;-76
2022/09/27 05:56:10;;;;;;;0.00;0.00;;;;;;;;;;5048845;28;20916;-76
2022/09/27 05:58:36;;;;;;;0.00;0.00;;;;;;;;;;5026113;28;21872;-76
2022/09/27 06:01:05;;;;;;;0.10;0.10;;;;;;;;;;5041356;28;20421;-76
2022/09/27 06:03:31;;;;;;;0.10;0.10;;;;;;;;;;5041315;28;20457;-76
2022/09/27 06:06:01;;;;;;;0.10;0.10;;;;;;;;;;5024420;28;20432;-76
2022/09/27 06:08:27;;;;;;;0.00;0.00;;;;;;;;;;5042507;28;20816;-76
2022/09/27 06:10:59;;;;;;;1.20;0.60;;;;;;;;;;5028773;28;20923;-76
2022/09/27 06:13:25;;;;;;;0.10;0.10;;;;;;;;;;5031584;28;20429;-76
2022/09/27 06:15:52;;;;;;;0.10;0.10;;;;;;;;;;5040494;28;20429;-77
2022/09/27 06:18:18;;;;;;;0.10;0.10;;;;;;;;;;5024303;28;20437;-76
2022/09/27 06:20:45;;;;;;;0.08;0.08;;;;;;;;;;5035542;28;20424;-77
2022/09/27 06:23:15;;;;;;;0.00;0.00;;;;;;;;;;5029925;28;20430;-77
2022/09/27 06:25:41;;;;;;;0.03;0.03;;;;;;;;;;5037368;28;20592;-77
2022/09/27 06:28:08;;;;;;;0.00;0.00;;;;;;;;;;5054025;28;20817;-77
2022/09/27 06:30:37;;;;;;;0.10;0.10;;;;;;;;;;5063063;28;20437;-77
2022/09/27 06:33:04;;;;;;;0.10;0.10;;;;;;;;;;5035420;28;20422;-77
2022/09/27 06:35:30;;;;;;;0.00;0.00;;;;;;;;;;5039644;28;20419;-77
2022/09/27 06:37:56;;;;;;;0.10;0.10;;;;;;;;;;5021621;28;20425;-76
2022/09/27 06:40:25;;;;;;;0.00;0.00;;;;;;;;;;5033859;28;20898;-76
2022/09/27 06:42:51;;;;;;;0.10;0.10;;;;;;;;;;5022616;28;20472;-77
2022/09/27 06:45:17;;;;;;;0.00;0.00;;;;;;;;;;5038345;28;20480;-76
2022/09/27 06:47:43;;;;;;;0.00;0.00;;;;;;;;;;5050850;28;20535;-77
2022/09/27 06:50:10;;;;;;;0.10;0.10;;;;;;;;;;5035378;28;20435;-77
2022/09/27 06:52:36;;;;;;;0.10;0.10;;;;;;;;;;5048488;28;20889;-77
2022/09/27 06:55:03;;;;;;;0.10;0.10;;;;;;;;;;5048440;28;20425;-77
2022/09/27 07:00:25;;;;;;;0.00;0.00;;;;;;;;;;5032044;28;20850;-77
2022/09/27 07:02:51;;;;;;;0.00;0.00;;;;;;;;;;5039047;28;20422;-76
2022/09/27 07:05:18;;;;;;;0.10;0.10;;;;;;;;;;5020002;28;20480;-76
2022/09/27 07:07:45;;;;;;;0.10;0.10;;;;;;;;;;5047062;28;20433;-77
2022/09/27 07:10:11;;;;;;;0.00;0.00;;;;;;;;;;5032847;28;20955;-77
2022/09/27 07:12:37;;;;;;;0.10;0.10;;;;;;;;;;5066640;28;20464;-77
2022/09/27 07:15:03;;;;;;;0.10;0.10;;;;;;;;;;5032437;28;20467;-77
2022/09/27 07:17:29;;;;;;;0.10;0.10;;;;;;;;;;5013540;28;20763;-77
2022/09/27 07:19:56;;;;;;;0.10;0.10;;;;;;;;;;5041008;28;20421;-77
2022/09/27 07:22:22;;;;;;;0.00;0.00;;;;;;;;;;5036602;28;20435;-77
2022/09/27 07:24:48;;;;;;;0.10;0.10;;;;;;;;;;5040138;28;20431;-77
2022/09/27 07:27:14;;;;;;;0.10;0.10;;;;;;;;;;5037602;28;20531;-77
2022/09/27 07:29:41;;;;;;;0.00;0.00;;;;;;;;;;5051537;28;20435;-77
2022/09/27 07:32:07;;;;;;;0.00;0.00;;;;;;;;;;5042965;28;20904;-77
2022/09/27 07:34:33;;;;;;;0.10;0.10;;;;;;;;;;5021426;28;20789;-77
2022/09/27 07:37:01;;;;;;;0.00;0.00;;;;;;;;;;5061379;28;20457;-77
2022/09/27 07:39:27;;;;;;;0.00;0.00;;;;;;;;;;5048977;28;20425;-77
2022/09/27 07:41:53;;;;;;;0.05;0.05;;;;;;;;;;5051136;28;20494;-77
2022/09/27 07:44:19;;;;;;;0.00;0.00;;;;;;;;;;5049717;28;20421;-78
2022/09/27 07:46:46;;;;;;;0.00;0.00;;;;;;;;;;5036342;28;20797;-77
2022/09/27 07:49:12;;;;;;;0.10;0.10;;;;;;;;;;5047420;28;20472;-77
2022/09/27 07:51:38;;;;;;;0.10;0.10;;;;;;;;;;5033579;28;20518;-77
2022/09/27 07:54:04;;;;;;;0.10;0.10;;;;;;;;;;5033175;28;20410;-77
2022/09/27 07:56:31;;;;;;;0.10;0.10;;;;;;;;;;5033661;28;20438;-77
2022/09/27 07:58:58;;;;;;;0.10;0.10;;;;;;;;;;5033484;28;20414;-77
2022/09/27 08:01:24;;;;;;;0.00;0.00;;;;;;;;;;5047479;28;20449;-77
2022/09/27 08:03:50;;;;;;;0.10;0.10;;;;;;;;;;5037254;28;20431;-77
2022/09/27 08:06:17;;;;;;;0.10;0.10;;;;;;;;;;5033513;28;20429;-77
2022/09/27 08:08:44;;;;;;;0.00;0.00;;;;;;;;;;5032475;28;20513;-77
2022/09/27 08:11:14;;;;;;;0.10;0.10;;;;;;;;;;5018170;28;20451;-77
2022/09/27 08:13:44;;;;;;;0.00;0.00;;;;;;;;;;5033326;28;20421;-77
2022/09/27 08:16:12;;;;;;;0.00;0.00;;;;;;;;;;5015371;28;20514;-77
2022/09/27 08:18:38;;;;;;;0.10;0.10;;;;;;;;;;5033229;28;20419;-77
2022/09/27 08:21:05;;;;;;;0.00;0.00;;;;;;;;;;5023590;28;20569;-77
2022/09/27 08:23:31;;;;;;;0.05;0.05;;;;;;;;;;5032626;28;20502;-78
2022/09/27 08:25:57;;;;;;;0.00;0.00;;;;;;;;;;5048211;28;20438;-77
2022/09/27 08:28:24;;;;;;;0.10;0.10;;;;;;;;;;5032844;28;20431;-77
2022/09/27 08:30:50;;;;;;;0.00;0.00;;;;;;;;;;5034679;28;20463;-78
2022/09/27 08:33:16;;;;;;;0.00;0.00;;;;;;;;;;5035204;28;20545;-78
2022/09/27 08:35:42;;;;;;;0.10;0.10;;;;;;;;;;5032944;28;20434;-78
2022/09/27 08:38:08;;;;;;;0.00;0.00;;;;;;;;;;5034901;28;20484;-77
2022/09/27 08:40:45;;;;;;;0.10;0.10;;;;;;;;;;5032521;28;20427;-77
2022/09/27 08:43:20;;;;;;;0.10;0.10;;;;;;;;;;5049599;28;20437;-77
2022/09/27 08:45:52;;;;;;;0.00;0.00;;;;;;;;;;5019081;28;20933;-77
2022/09/27 08:48:18;;;;;;;0.00;0.00;;;;;;;;;;5031977;28;20427;-77
2022/09/27 08:50:45;;;;;;;0.10;0.10;;;;;;;;;;5036392;28;20494;-78
2022/09/27 08:53:14;;;;;;;0.10;0.10;;;;;;;;;;5038807;28;20769;-78
2022/09/27 08:55:46;;;;;;;8.80;0.40;;;;;;;;;;5032348;28;20431;-77
2022/09/27 08:58:19;;;;;;;0.10;0.10;;;;;;;;;;5032466;28;20477;-77
2022/09/27 09:00:45;;;;;;;0.10;0.10;;;;;;;;;;5032849;28;20427;-77
2022/09/27 09:03:17;;;;;;;0.08;0.08;;;;;;;;;;5027678;28;20423;-77
2022/09/27 09:05:45;;;;;;;0.10;0.10;;;;;;;;;;5031910;28;20833;-77
2022/09/27 09:08:29;;;;;;;0.10;0.10;;;;;;;;;;5014162;28;20437;-77
2022/09/27 09:14:07;;;;;;;0.00;0.00;;;;;;;;;;5026409;28;20446;-77
2022/09/27 09:16:46;;;;;;;0.05;0.05;;;;;;;;;;5023438;28;20782;-77
2022/09/27 09:19:22;;;;;;;0.10;0.10;;;;;;;;;;5031407;28;20434;-77
2022/09/27 09:21:48;;;;;;;0.10;0.10;;;;;;;;;;5034915;28;20427;-77
2022/09/27 09:24:17;;;;;;;0.10;0.10;;;;;;;;;;5036445;28;20468;-77
2022/09/27 09:26:56;;;;;;;0.10;0.10;;;;;;;;;;5033894;28;20427;-77
2022/09/27 09:29:35;;;;;;;0.10;0.10;;;;;;;;;;5030851;28;20787;-78
2022/09/27 09:32:13;;;;;;;0.10;0.10;;;;;;;;;;5035218;28;20859;-77
2022/09/27 09:34:42;;;;;;;0.10;0.10;;;;;;;;;;5031506;28;20943;-77
2022/09/27 09:37:17;;;;;;;0.10;0.10;;;;;;;;;;5031425;28;20767;-77
2022/09/27 09:40:07;;;;;;;0.10;0.10;;;;;;;;;;5042800;28;20462;-77
2022/09/27 09:42:38;;;;;;;0.10;0.10;;;;;;;;;;5011552;28;20440;-76
2022/09/27 09:45:15;;;;;;;0.10;0.10;;;;;;;;;;5047047;28;20425;-76
2022/09/27 09:47:43;;;;;;;0.10;0.10;;;;;;;;;;5031721;28;20431;-75
2022/09/27 09:50:17;;;;;;;0.10;0.10;;;;;;;;;;5039070;28;20431;-75
2022/09/27 09:52:47;;;;;;;0.10;0.10;;;;;;;;;;5057416;28;20872;-75
2022/09/27 09:55:19;;;;;;;0.10;0.10;;;;;;;;;;5031719;28;20423;-74
2022/09/27 09:57:59;;;;;;;0.10;0.10;;;;;;;;;;5031405;28;20433;-74
2022/09/27 10:00:26;;;;;;;0.10;0.10;;;;;;;;;;5050017;28;20516;-75
2022/09/27 10:02:53;;;;;;;0.10;0.10;;;;;;;;;;5048102;28;20484;-74
2022/09/27 10:05:21;;;;;;;0.00;0.00;;;;;;;;;;5034283;28;20425;-75
2022/09/27 10:07:49;;;;;;;0.05;0.05;;;;;;;;;;5048969;28;20483;-75
2022/09/27 10:10:17;;;;;;;0.00;0.00;;;;;;;;;;5027873;28;20430;-76
2022/09/27 10:12:43;;;;;;;0.10;0.10;;;;;;;;;;5043314;28;20524;-75
2022/09/27 10:15:13;;;;;;;0.10;0.10;;;;;;;;;;5039386;28;20454;-75
2022/09/27 10:17:41;;;;;;;0.10;0.10;;;;;;;;;;5040169;28;20427;-74
2022/09/27 10:20:07;;;;;;;0.10;0.10;;;;;;;;;;5013996;28;20435;-76
2022/09/27 10:22:42;;;;;;;0.10;0.10;;;;;;;;;;5031673;28;20873;-74
2022/09/27 10:25:09;;;;;;;0.25;0.25;;;;;;;;;;5038232;28;20418;-75
2022/09/27 10:27:46;;;;;;;0.10;0.10;;;;;;;;;;5035056;28;20827;-76
2022/09/27 10:30:23;;;;;;;0.10;0.10;;;;;;;;;;5035076;28;20427;-76
2022/09/27 10:32:55;;;;;;;0.10;0.10;;;;;;;;;;5037273;28;20427;-76
2022/09/27 10:35:42;;;;;;;0.10;0.10;;;;;;;;;;5050676;28;20421;-76
2022/09/27 10:38:22;;;;;;;0.10;0.10;;;;;;;;;;5041813;28;20429;-76
2022/09/27 10:40:49;;;;;;;0.00;0.00;;;;;;;;;;5065433;28;20427;-77
2022/09/27 10:43:26;;;;;;;0.10;0.10;;;;;;;;;;5041749;28;20442;-76
2022/09/27 10:46:09;;;;;;;0.10;0.10;;;;;;;;;;5053450;28;20506;-75
2022/09/27 10:48:36;;;;;;;0.10;0.10;;;;;;;;;;5065917;28;20443;-75
2022/09/27 10:51:04;;;;;;;0.10;0.10;;;;;;;;;;5044194;28;20492;-75
2022/09/27 10:53:30;;;;;;;0.10;0.10;;;;;;;;;;5032187;28;20880;-75
2022/09/27 10:55:57;;;;;;;0.10;0.10;;;;;;;;;;5057359;28;20417;-75
2022/09/27 10:58:34;;;;;;;0.10;0.10;;;;;;;;;;5039032;28;20427;-74
2022/09/27 11:01:02;;;;;;;0.10;0.10;;;;;;;;;;5042345;28;20532;-76
2022/09/27 11:03:29;;;;;;;0.10;0.10;;;;;;;;;;5046819;28;20863;-76
2022/09/27 11:05:58;;;;;;;0.10;0.10;;;;;;;;;;5045905;28;20423;-75
2022/09/27 11:08:34;;;;;;;0.00;0.00;;;;;;;;;;5048731;28;20465;-76
2022/09/27 11:11:18;;;;;;;0.10;0.10;;;;;;;;;;5039462;28;20428;-75
2022/09/27 11:13:58;;;;;;;0.00;0.00;;;;;;;;;;5037884;28;20434;-76
2022/09/27 11:16:28;;;;;;;0.10;0.10;;;;;;;;;;5050916;28;20429;-76
2022/09/27 11:19:09;;;;;;;0.10;0.10;;;;;;;;;;5043743;28;20418;-75
2022/09/27 11:21:50;;;;;;;0.00;0.00;;;;;;;;;;5034020;28;20891;-76
2022/09/27 11:24:19;;;;;;;0.00;0.00;;;;;;;;;;5055128;28;20427;-76
2022/09/27 11:26:48;;;;;;;0.00;0.00;;;;;;;;;;5046215;28;20437;-76
2022/09/27 11:29:28;;;;;;;0.10;0.10;;;;;;;;;;5068711;28;20441;-75
2022/09/27 11:32:19;;;;;;;0.00;0.00;;;;;;;;;;5035600;28;20436;-76
2022/09/27 11:35:04;;;;;;;0.00;0.00;;;;;;;;;;5032893;28;20848;-75
2022/09/27 11:37:49;;;;;;;0.10;0.10;;;;;;;;;;5043365;28;20427;-75
2022/09/27 11:40:17;;;;;;;0.00;0.00;;;;;;;;;;5039981;28;20431;-75
2022/09/27 11:42:50;;;;;;;0.10;0.10;;;;;;;;;;5033947;28;20829;-75
2022/09/27 11:45:21;;;;;;;0.03;0.03;;;;;;;;;;5032035;28;20530;-74
2022/09/27 11:47:47;;;;;;;0.00;0.00;;;;;;;;;;5045658;28;20426;-74
2022/09/27 11:50:17;;;;;;;0.00;0.00;;;;;;;;;;5033919;28;20431;-75
2022/09/27 11:53:02;;;;;;;0.60;0.60;;;;;;;;;;5033709;28;20419;-75
2022/09/27 11:55:45;;;;;;;0.10;0.10;;;;;;;;;;5033353;28;20507;-75
2022/09/27 11:58:29;;;;;;;0.10;0.10;;;;;;;;;;5040035;28;20942;-75
2022/09/27 12:01:11;;;;;;;0.00;0.00;;;;;;;;;;5034371;28;20483;-74
2022/09/27 12:04:00;;;;;;;0.10;0.10;;;;;;;;;;5036206;28;20433;-74
2022/09/27 12:06:48;;;;;;;0.10;0.10;;;;;;;;;;5028043;28;20512;-75
2022/09/27 12:09:20;;;;;;;0.10;0.10;;;;;;;;;;5033247;28;20510;-74
2022/09/27 12:11:48;;;;;;;0.00;0.00;;;;;;;;;;5024812;28;20500;-76
2022/09/27 12:14:32;;;;;;;0.10;0.10;;;;;;;;;;5021523;28;20466;-75
2022/09/27 12:16:59;;;;;;;0.00;0.00;;;;;;;;;;5042492;28;20450;-75
2022/09/27 12:19:27;;;;;;;0.00;0.00;;;;;;;;;;5045155;28;20448;-75
2022/09/27 12:21:55;;;;;;;0.00;0.00;;;;;;;;;;5032262;28;20502;-75
2022/09/27 12:24:23;;;;;;;0.00;0.00;;;;;;;;;;5039370;28;20429;-75
2022/09/27 12:27:00;;;;;;;0.00;0.00;;;;;;;;;;5042182;28;20433;-74
2022/09/27 12:29:32;;;;;;;0.00;0.00;;;;;;;;;;5054057;28;20459;-75
2022/09/27 12:32:09;;;;;;;0.10;0.10;;;;;;;;;;5035667;28;20962;-74
2022/09/27 12:34:48;;;;;;;0.10;0.10;;;;;;;;;;5049702;28;20432;-77
2022/09/27 12:37:17;;;;;;;0.00;0.00;;;;;;;;;;5040296;28;20948;-76
2022/09/27 12:39:49;;;;;;;0.00;0.00;;;;;;;;;;5018947;28;20890;-76
2022/09/27 12:42:27;;;;;;;0.10;0.10;;;;;;;;;;5024205;28;20440;-79
2022/09/27 12:44:54;;;;;;;0.10;0.10;;;;;;;;;;5020350;28;20438;-85
2022/09/27 12:47:27;;;;;;;0.00;0.00;;;;;;;;;;5021820;28;20477;-77
2022/09/27 12:50:12;;;;;;;0.00;0.00;;;;;;;;;;5036776;28;20473;-77
2022/09/27 12:52:43;;;;;;;0.10;0.10;;;;;;;;;;5059905;28;20900;-78
2022/09/27 12:55:30;;;;;;;0.10;0.10;;;;;;;;;;5023949;28;20427;-78
2022/09/27 12:57:59;;;;;;;0.10;0.10;;;;;;;;;;5033474;28;20585;-79
2022/09/27 13:00:26;;;;;;;0.10;0.10;;;;;;;;;;5023657;28;20439;-79
2022/09/27 13:02:53;;;;;;;0.10;0.10;;;;;;;;;;5030556;28;20432;-78
2022/09/27 13:05:27;;;;;;;0.10;0.10;;;;;;;;;;5033909;28;20427;-79
2022/09/27 13:08:08;;;;;;;0.10;0.10;;;;;;;;;;5013968;28;20435;-80
2022/09/27 13:10:38;;;;;;;0.10;0.10;;;;;;;;;;5032820;28;20429;-79
2022/09/27 13:13:05;;;;;;;0.00;0.00;;;;;;;;;;5026338;28;20789;-81
2022/09/27 13:15:32;;;;;;;0.00;0.00;;;;;;;;;;5034599;28;20450;-81
2022/09/27 13:18:00;;;;;;;0.10;0.10;;;;;;;;;;5024841;28;20438;-79
2022/09/27 13:20:32;;;;;;;0.10;0.10;;;;;;;;;;5034582;28;20838;-78
2022/09/27 13:22:59;;;;;;;0.10;0.10;;;;;;;;;;5035459;28;20452;-80
2022/09/27 13:26:04;;;;;;;0.10;0.10;;;;;;;;;;5042858;28;20476;-80
2022/09/27 13:28:31;;;;;;;0.10;0.10;;;;;;;;;;4987081;28;20996;-79
2022/09/27 13:31:10;;;;;;;0.10;0.10;;;;;;;;;;4988187;28;20469;-77
2022/09/27 13:33:40;;;;;;;0.10;0.10;;;;;;;;;;5010364;28;20505;-78
2022/09/27 13:36:26;;;;;;;0.00;0.00;;;;;;;;;;5031643;28;20437;-78
2022/09/27 13:39:04;;;;;;;0.00;0.00;;;;;;;;;;5046579;28;20454;-79
2022/09/27 13:41:34;;;;;;;0.10;0.10;;;;;;;;;;5012204;28;20522;-83
2022/09/27 13:44:13;;;;;;;0.10;0.10;;;;;;;;;;5030598;28;20435;-77
2022/09/27 13:46:47;;;;;;;0.10;0.10;;;;;;;;;;5033311;28;20433;-78
2022/09/27 13:49:19;;;;;;;0.10;0.10;;;;;;;;;;5033327;28;20427;-77
2022/09/27 13:51:48;;;;;;;0.63;0.32;;;;;;;;;;5046156;28;20793;-79
2022/09/27 13:54:33;;;;;;;0.10;0.10;;;;;;;;;;5015832;28;20433;-80
2022/09/27 13:57:00;;;;;;;0.10;0.10;;;;;;;;;;5058642;28;20498;-80
2022/09/27 13:59:35;;;;;;;0.00;0.00;;;;;;;;;;5035526;28;20814;-80
2022/09/27 14:02:12;;;;;;;0.10;0.10;;;;;;;;;;5025764;28;20444;-80
2022/09/27 14:04:41;;;;;;;0.10;0.10;;;;;;;;;;5046148;28;20430;-81
2022/09/27 14:07:10;;;;;;;0.10;0.10;;;;;;;;;;5041073;28;20425;-79
2022/09/27 14:09:40;;;;;;;0.00;0.00;;;;;;;;;;5024693;28;20430;-78
2022/09/27 14:12:11;;;;;;;0.10;0.10;;;;;;;;;;5052922;28;20431;-80
2022/09/27 14:14:38;;;;;;;0.10;0.10;;;;;;;;;;5018412;28;20457;-81
2022/09/27 14:17:06;;;;;;;0.00;0.00;;;;;;;;;;5054646;28;20790;-74
2022/09/27 14:19:33;;;;;;;0.10;0.10;;;;;;;;;;5027464;28;21243;-76
2022/09/27 14:21:59;;;;;;;0.10;0.10;;;;;;;;;;5067769;28;20471;-78
2022/09/27 14:24:25;;;;;;;0.80;0.60;;;;;;;;;;5059980;28;20944;-79
2022/09/27 14:27:12;;;;;;;0.10;0.10;;;;;;;;;;5032917;28;20468;-78
2022/09/27 14:29:39;;;;;;;0.00;0.00;;;;;;;;;;5050598;28;20437;-79
2022/09/27 14:32:09;;;;;;;0.10;0.10;;;;;;;;;;5062695;28;20438;-80
2022/09/27 14:34:35;;;;;;;0.00;0.00;;;;;;;;;;5048965;28;20440;-79
2022/09/27 14:39:52;;;;;;;0.10;0.10;;;;;;;;;;5030287;28;20923;-79
2022/09/27 14:42:23;;;;;;;0.10;0.10;;;;;;;;;;5064518;28;20487;-80
2022/09/27 14:44:50;;;;;;;0.10;0.10;;;;;;;;;;5047895;28;20442;-82
2022/09/27 14:47:22;;;;;;;0.10;0.10;;;;;;;;;;5039663;28;20452;-79
2022/09/27 14:49:56;;;;;;;0.10;0.10;;;;;;;;;;5069867;28;20441;-78
2022/09/27 14:52:28;;;;;;;0.00;0.00;;;;;;;;;;5064127;28;20430;-78
2022/09/27 14:54:56;;;;;;;0.00;0.00;;;;;;;;;;5057278;28;20477;-78
2022/09/27 14:57:22;;;;;;;0.10;0.10;;;;;;;;;;5032967;28;20431;-78
2022/09/27 14:59:48;;;;;;;0.00;0.00;;;;;;;;;;5064798;28;20467;-78
2022/09/27 15:02:17;;;;;;;0.10;0.10;;;;;;;;;;5027593;28;20421;-79
2022/09/27 15:04:47;;;;;;;0.10;0.10;;;;;;;;;;5064788;28;20452;-79
2022/09/27 15:07:15;;;;;;;0.10;0.10;;;;;;;;;;5055732;28;20423;-81
2022/09/27 15:09:42;;;;;;;0.30;0.30;;;;;;;;;;5020671;28;20437;-79
2022/09/27 15:12:11;;;;;;;0.00;0.00;;;;;;;;;;5043393;28;20460;-78